sensor_id;sensor_type;location;lat;lon;timestamp;pressure;altitude;pressure_sealevel;temperature;humidity
50065;BME280;35951;47.848;-122.338;2022-09-12T00:01:20;101298.39;;;23.55;100.00
50065;BME280;35951;47.848;-122.338;2022-09-12T00:03:51;101302.41;;;23.53;100.00
50065;BME280;35951;47.848;-122.338;2022-09-12T00:06:26;101309.59;;;23.50;100.00
50065;BME280;35951;47.848;-122.338;2022-09-12T00:08:59;101312.38;;;23.47;100.00
50065;BME280;35951;47.848;-122.338;2022-09-12T00:11:29;101324.86;;;23.43;100.00
50065;BME280;35951;47.848;-122.338;2022-09-12T00:13:59;101320.51;;;23.41;100.00
50065;BME280;35951;47.848;-122.338;2022-09-12T00:16:29;101336.97;;;23.37;100.00
50065;BME280;35951;47.848;-122.338;2022-09-12T00:18:57;101337.52;;;23.33;100.00
50065;BME280;35951;47.848;-122.338;2022-09-12T00:21:25;101344.62;;;23.33;100.00
50065;BME280;35951;47.848;-122.338;2022-09-12T00:23:54;101338.08;;;23.30;100.00
50065;BME280;35951;47.848;-122.338;2022-09-12T00:26:22;101322.64;;;23.29;100.00
50065;BME280;35951;47.848;-122.338;2022-09-12T00:28:51;101319.13;;;23.29;100.00
50065;BME280;35951;47.848;-122.338;2022-09-12T00:31:21;101307.30;;;23.26;100.00
50065;BME280;35951;47.848;-122.338;2022-09-12T00:33:50;101301.27;;;23.21;100.00
50065;BME280;35951;47.848;-122.338;2022-09-12T00:36:19;101303.95;;;23.19;100.00
50065;BME280;35951;47.848;-122.338;2022-09-12T00:38:51;101297.84;;;23.17;100.00
50065;BME280;35951;47.848;-122.338;2022-09-12T00:41:28;101293.91;;;23.15;100.00
50065;BME280;35951;47.848;-122.338;2022-09-12T00:44:01;101288.27;;;23.13;100.00
50065;BME280;35951;47.848;-122.338;2022-09-12T00:49:23;101264.67;;;23.04;100.00
50065;BME280;35951;47.848;-122.338;2022-09-12T00:52:12;101272.71;;;23.00;100.00
50065;BME280;35951;47.848;-122.338;2022-09-12T00:54:47;101287.36;;;22.97;100.00
50065;BME280;35951;47.848;-122.338;2022-09-12T00:57:20;101297.66;;;22.93;100.00
50065;BME280;35951;47.848;-122.338;2022-09-12T01:00:13;101316.31;;;22.90;100.00
50065;BME280;35951;47.848;-122.338;2022-09-12T01:02:50;101327.39;;;22.88;100.00
50065;BME280;35951;47.848;-122.338;2022-09-12T01:05:20;101322.16;;;22.87;100.00
50065;BME280;35951;47.848;-122.338;2022-09-12T01:07:49;101330.15;;;22.85;100.00
50065;BME280;35951;47.848;-122.338;2022-09-12T01:10:19;101341.60;;;22.86;100.00
50065;BME280;35951;47.848;-122.338;2022-09-12T01:12:47;101343.83;;;22.85;100.00
50065;BME280;35951;47.848;-122.338;2022-09-12T01:15:15;101344.84;;;22.80;100.00
50065;BME280;35951;47.848;-122.338;2022-09-12T01:18:05;101344.84;;;22.80;100.00
50065;BME280;35951;47.848;-122.338;2022-09-12T01:20:54;101349.73;;;22.79;100.00
50065;BME280;35951;47.848;-122.338;2022-09-12T01:38:29;101348.22;;;22.71;100.00
50065;BME280;35951;47.848;-122.338;2022-09-12T01:46:37;101336.57;;;22.61;100.00
50065;BME280;35951;47.848;-122.338;2022-09-12T01:52:25;101355.72;;;22.55;100.00
50065;BME280;35951;47.848;-122.338;2022-09-12T01:57:54;101367.00;;;22.47;100.00
50065;BME280;35951;47.848;-122.338;2022-09-12T02:00:21;101360.06;;;22.41;100.00
50065;BME280;35951;47.848;-122.338;2022-09-12T02:03:10;101365.90;;;22.37;100.00
50065;BME280;35951;47.848;-122.338;2022-09-12T02:05:49;101375.66;;;22.35;100.00
50065;BME280;35951;47.848;-122.338;2022-09-12T02:08:25;101385.06;;;22.31;100.00
50065;BME280;35951;47.848;-122.338;2022-09-12T02:10:56;101389.14;;;22.26;100.00
50065;BME280;35951;47.848;-122.338;2022-09-12T02:13:43;101394.44;;;22.24;100.00
50065;BME280;35951;47.848;-122.338;2022-09-12T02:16:17;101383.52;;;22.20;100.00
50065;BME280;35951;47.848;-122.338;2022-09-12T02:18:52;101384.55;;;22.15;100.00
50065;BME280;35951;47.848;-122.338;2022-09-12T02:21:23;101386.41;;;22.11;100.00
50065;BME280;35951;47.848;-122.338;2022-09-12T02:23:57;101384.73;;;22.09;100.00
50065;BME280;35951;47.848;-122.338;2022-09-12T02:26:43;101377.82;;;22.03;100.00
50065;BME280;35951;47.848;-122.338;2022-09-12T02:29:11;101382.25;;;22.01;100.00
50065;BME280;35951;47.848;-122.338;2022-09-12T02:31:44;101381.03;;;21.98;100.00
50065;BME280;35951;47.848;-122.338;2022-09-12T02:40:34;101375.87;;;21.92;100.00
50065;BME280;35951;47.848;-122.338;2022-09-12T02:43:04;101375.91;;;21.90;100.00
50065;BME280;35951;47.848;-122.338;2022-09-12T02:45:33;101383.02;;;21.88;100.00
50065;BME280;35951;47.848;-122.338;2022-09-12T02:48:10;101390.58;;;21.85;100.00
50065;BME280;35951;47.848;-122.338;2022-09-12T02:50:42;101384.00;;;21.84;100.00
50065;BME280;35951;47.848;-122.338;2022-09-12T02:53:11;101402.19;;;21.80;100.00
50065;BME280;35951;47.848;-122.338;2022-09-12T02:55:40;101409.29;;;21.78;100.00
50065;BME280;35951;47.848;-122.338;2022-09-12T02:58:14;101412.43;;;21.76;100.00
50065;BME280;35951;47.848;-122.338;2022-09-12T03:04:14;101413.91;;;21.68;100.00
50065;BME280;35951;47.848;-122.338;2022-09-12T03:07:23;101414.52;;;21.61;100.00
50065;BME280;35951;47.848;-122.338;2022-09-12T03:10:02;101415.47;;;21.57;100.00
50065;BME280;35951;47.848;-122.338;2022-09-12T03:15:10;101421.34;;;21.52;100.00
50065;BME280;35951;47.848;-122.338;2022-09-12T03:18:03;101421.38;;;21.51;100.00
50065;BME280;35951;47.848;-122.338;2022-09-12T03:26:27;101450.22;;;21.19;100.00
50065;BME280;35951;47.848;-122.338;2022-09-12T03:29:03;101450.03;;;21.06;100.00
50065;BME280;35951;47.848;-122.338;2022-09-12T03:31:32;101451.20;;;20.91;100.00
50065;BME280;35951;47.848;-122.338;2022-09-12T03:34:00;101456.23;;;20.81;100.00
50065;BME280;35951;47.848;-122.338;2022-09-12T03:36:29;101444.00;;;20.77;100.00
50065;BME280;35951;47.848;-122.338;2022-09-12T03:38:57;101450.34;;;20.66;100.00
50065;BME280;35951;47.848;-122.338;2022-09-12T03:41:25;101447.37;;;20.61;100.00
50065;BME280;35951;47.848;-122.338;2022-09-12T03:43:52;101458.40;;;20.57;100.00
50065;BME280;35951;47.848;-122.338;2022-09-12T03:46:22;101458.04;;;20.53;100.00
50065;BME280;35951;47.848;-122.338;2022-09-12T03:48:49;101476.11;;;20.52;100.00
50065;BME280;35951;47.848;-122.338;2022-09-12T03:51:17;101482.31;;;20.48;100.00
50065;BME280;35951;47.848;-122.338;2022-09-12T03:53:45;101478.45;;;20.43;100.00
50065;BME280;35951;47.848;-122.338;2022-09-12T03:56:12;101477.56;;;20.43;100.00
50065;BME280;35951;47.848;-122.338;2022-09-12T03:58:40;101475.86;;;20.40;100.00
50065;BME280;35951;47.848;-122.338;2022-09-12T04:01:09;101473.72;;;20.37;100.00
50065;BME280;35951;47.848;-122.338;2022-09-12T04:03:39;101477.72;;;20.33;100.00
50065;BME280;35951;47.848;-122.338;2022-09-12T04:06:08;101484.43;;;20.27;100.00
50065;BME280;35951;47.848;-122.338;2022-09-12T04:08:38;101481.01;;;20.21;100.00
50065;BME280;35951;47.848;-122.338;2022-09-12T04:11:09;101483.30;;;20.15;100.00
50065;BME280;35951;47.848;-122.338;2022-09-12T04:13:38;101485.11;;;20.11;100.00
50065;BME280;35951;47.848;-122.338;2022-09-12T04:16:07;101472.02;;;20.07;100.00
50065;BME280;35951;47.848;-122.338;2022-09-12T04:18:35;101477.77;;;20.05;100.00
50065;BME280;35951;47.848;-122.338;2022-09-12T04:21:04;101483.48;;;20.03;100.00
50065;BME280;35951;47.848;-122.338;2022-09-12T04:23:33;101495.83;;;20.01;100.00
50065;BME280;35951;47.848;-122.338;2022-09-12T04:26:02;101495.89;;;19.98;100.00
50065;BME280;35951;47.848;-122.338;2022-09-12T04:28:32;101492.84;;;19.95;100.00
50065;BME280;35951;47.848;-122.338;2022-09-12T04:31:05;101495.06;;;19.94;100.00
50065;BME280;35951;47.848;-122.338;2022-09-12T04:33:35;101493.31;;;19.93;100.00
50065;BME280;35951;47.848;-122.338;2022-09-12T04:36:05;101499.91;;;19.93;100.00
50065;BME280;35951;47.848;-122.338;2022-09-12T04:38:35;101499.06;;;19.91;100.00
50065;BME280;35951;47.848;-122.338;2022-09-12T04:41:18;101510.05;;;19.92;100.00
50065;BME280;35951;47.848;-122.338;2022-09-12T04:43:53;101507.41;;;19.92;100.00
50065;BME280;35951;47.848;-122.338;2022-09-12T04:46:24;101520.16;;;19.91;100.00
50065;BME280;35951;47.848;-122.338;2022-09-12T04:48:52;101515.74;;;19.91;100.00
50065;BME280;35951;47.848;-122.338;2022-09-12T04:51:22;101514.88;;;19.91;100.00
50065;BME280;35951;47.848;-122.338;2022-09-12T04:54:00;101513.11;;;19.91;100.00
50065;BME280;35951;47.848;-122.338;2022-09-12T04:56:35;101506.09;;;19.92;100.00
50065;BME280;35951;47.848;-122.338;2022-09-12T04:59:06;101503.45;;;19.92;100.00
50065;BME280;35951;47.848;-122.338;2022-09-12T05:01:35;101497.28;;;19.91;100.00
50065;BME280;35951;47.848;-122.338;2022-09-12T05:04:03;101496.44;;;19.89;100.00
50065;BME280;35951;47.848;-122.338;2022-09-12T05:06:33;101482.91;;;19.84;100.00
50065;BME280;35951;47.848;-122.338;2022-09-12T05:09:02;101498.63;;;19.90;100.00
50065;BME280;35951;47.848;-122.338;2022-09-12T05:11:39;101509.15;;;19.91;100.00
50065;BME280;35951;47.848;-122.338;2022-09-12T05:14:09;101508.73;;;19.92;100.00
50065;BME280;35951;47.848;-122.338;2022-09-12T05:16:36;101507.41;;;19.92;100.00
50065;BME280;35951;47.848;-122.338;2022-09-12T05:19:05;101504.33;;;19.91;100.00
50065;BME280;35951;47.848;-122.338;2022-09-12T05:21:32;101514.05;;;19.87;100.00
50065;BME280;35951;47.848;-122.338;2022-09-12T05:24:00;101505.27;;;19.88;100.00
50065;BME280;35951;47.848;-122.338;2022-09-12T05:26:28;101504.38;;;19.86;100.00
50065;BME280;35951;47.848;-122.338;2022-09-12T05:28:55;101500.92;;;19.83;100.00
50065;BME280;35951;47.848;-122.338;2022-09-12T05:31:24;101498.76;;;19.81;100.00
50065;BME280;35951;47.848;-122.338;2022-09-12T05:33:54;101491.76;;;19.80;100.00
50065;BME280;35951;47.848;-122.338;2022-09-12T05:36:27;101482.95;;;19.79;100.00
50065;BME280;35951;47.848;-122.338;2022-09-12T05:38:55;101478.59;;;19.78;100.00
50065;BME280;35951;47.848;-122.338;2022-09-12T05:41:27;101466.27;;;19.79;100.00
50065;BME280;35951;47.848;-122.338;2022-09-12T05:43:58;101469.37;;;19.78;100.00
50065;BME280;35951;47.848;-122.338;2022-09-12T05:46:28;101458.82;;;19.78;100.00
50065;BME280;35951;47.848;-122.338;2022-09-12T05:49:01;101449.14;;;19.79;100.00
50065;BME280;35951;47.848;-122.338;2022-09-12T05:51:30;101445.20;;;19.77;100.00
50065;BME280;35951;47.848;-122.338;2022-09-12T05:54:00;101418.89;;;19.72;100.00
50065;BME280;35951;47.848;-122.338;2022-09-12T05:56:30;101415.84;;;19.70;100.00
50065;BME280;35951;47.848;-122.338;2022-09-12T05:59:00;101412.81;;;19.67;100.00
50065;BME280;35951;47.848;-122.338;2022-09-12T06:01:30;101394.84;;;19.65;100.00
50065;BME280;35951;47.848;-122.338;2022-09-12T06:03:59;101401.46;;;19.62;100.00
50065;BME280;35951;47.848;-122.338;2022-09-12T06:06:29;101398.42;;;19.61;100.00
50065;BME280;35951;47.848;-122.338;2022-09-12T06:08:59;101415.98;;;19.61;100.00
50065;BME280;35951;47.848;-122.338;2022-09-12T06:11:29;101429.63;;;19.59;100.00
50065;BME280;35951;47.848;-122.338;2022-09-12T06:14:00;101447.63;;;19.59;100.00
50065;BME280;35951;47.848;-122.338;2022-09-12T06:16:30;101452.02;;;19.60;100.00
50065;BME280;35951;47.848;-122.338;2022-09-12T06:19:07;101456.42;;;19.60;100.00
50065;BME280;35951;47.848;-122.338;2022-09-12T06:21:32;101478.38;;;19.59;100.00
50065;BME280;35951;47.848;-122.338;2022-09-12T06:24:05;101488.06;;;19.58;100.00
50065;BME280;35951;47.848;-122.338;2022-09-12T06:26:33;101486.73;;;19.60;100.00
50065;BME280;35951;47.848;-122.338;2022-09-12T06:29:01;101486.73;;;19.60;100.00
50065;BME280;35951;47.848;-122.338;2022-09-12T06:31:30;101490.21;;;19.62;100.00
50065;BME280;35951;47.848;-122.338;2022-09-12T06:34:02;101481.84;;;19.62;100.00
50065;BME280;35951;47.848;-122.338;2022-09-12T06:36:33;101479.20;;;19.64;100.00
50065;BME280;35951;47.848;-122.338;2022-09-12T06:39:16;101479.67;;;19.62;100.00
50065;BME280;35951;47.848;-122.338;2022-09-12T06:41:49;101490.23;;;19.60;100.00
50065;BME280;35951;47.848;-122.338;2022-09-12T06:44:19;101487.61;;;19.59;100.00
50065;BME280;35951;47.848;-122.338;2022-09-12T06:46:48;101482.80;;;19.58;100.00
50065;BME280;35951;47.848;-122.338;2022-09-12T06:49:15;101479.30;;;19.58;100.00
50065;BME280;35951;47.848;-122.338;2022-09-12T06:51:43;101488.94;;;19.57;100.00
50065;BME280;35951;47.848;-122.338;2022-09-12T06:54:14;101481.09;;;19.54;100.00
50065;BME280;35951;47.848;-122.338;2022-09-12T06:56:43;101485.52;;;19.52;100.00
50065;BME280;35951;47.848;-122.338;2022-09-12T06:59:11;101492.13;;;19.50;100.00
50065;BME280;35951;47.848;-122.338;2022-09-12T07:01:39;101487.75;;;19.48;100.00
50065;BME280;35951;47.848;-122.338;2022-09-12T07:04:08;101482.07;;;19.47;100.00
50065;BME280;35951;47.848;-122.338;2022-09-12T07:06:39;101488.23;;;19.44;100.00
50065;BME280;35951;47.848;-122.338;2022-09-12T07:09:10;101480.80;;;19.42;100.00
50065;BME280;35951;47.848;-122.338;2022-09-12T07:11:41;101468.95;;;19.41;100.00
50065;BME280;35951;47.848;-122.338;2022-09-12T07:14:11;101482.14;;;19.39;100.00
50065;BME280;35951;47.848;-122.338;2022-09-12T07:16:39;101490.52;;;19.37;100.00
50065;BME280;35951;47.848;-122.338;2022-09-12T07:19:07;101500.19;;;19.36;100.00
50065;BME280;35951;47.848;-122.338;2022-09-12T07:21:35;101497.10;;;19.37;100.00
50065;BME280;35951;47.848;-122.338;2022-09-12T07:24:05;101493.15;;;19.37;100.00
50065;BME280;35951;47.848;-122.338;2022-09-12T07:26:33;101497.10;;;19.37;100.00
50065;BME280;35951;47.848;-122.338;2022-09-12T07:29:01;101492.76;;;19.34;100.00
50065;BME280;35951;47.848;-122.338;2022-09-12T07:31:29;101498.05;;;19.31;100.00
50065;BME280;35951;47.848;-122.338;2022-09-12T07:33:56;101498.98;;;19.27;100.00
50065;BME280;35951;47.848;-122.338;2022-09-12T07:36:24;101500.77;;;19.25;100.00
50065;BME280;35951;47.848;-122.338;2022-09-12T07:38:56;101493.80;;;19.21;100.00
50065;BME280;35951;47.848;-122.338;2022-09-12T07:41:26;101493.83;;;19.18;100.00
50065;BME280;35951;47.848;-122.338;2022-09-12T07:43:57;101494.31;;;19.14;100.00
50065;BME280;35951;47.848;-122.338;2022-09-12T07:46:26;101490.38;;;19.11;100.00
50065;BME280;35951;47.848;-122.338;2022-09-12T07:48:57;101480.31;;;19.09;100.00
50065;BME280;35951;47.848;-122.338;2022-09-12T07:51:28;101484.72;;;19.09;100.00
50065;BME280;35951;47.848;-122.338;2022-09-12T07:53:57;101480.80;;;19.06;100.00
50065;BME280;35951;47.848;-122.338;2022-09-12T07:56:26;101487.39;;;19.04;100.00
50065;BME280;35951;47.848;-122.338;2022-09-12T07:58:55;101486.08;;;19.04;100.00
50065;BME280;35951;47.848;-122.338;2022-09-12T08:01:23;101499.70;;;19.02;100.00
50065;BME280;35951;47.848;-122.338;2022-09-12T08:03:56;101486.13;;;19.01;100.00
50065;BME280;35951;47.848;-122.338;2022-09-12T08:06:26;101480.41;;;19.02;100.00
50065;BME280;35951;47.848;-122.338;2022-09-12T08:08:56;101493.98;;;19.03;100.00
50065;BME280;35951;47.848;-122.338;2022-09-12T08:11:26;101482.19;;;19.01;100.00
50065;BME280;35951;47.848;-122.338;2022-09-12T08:13:56;101475.59;;;19.01;100.00
50065;BME280;35951;47.848;-122.338;2022-09-12T08:16:26;101470.34;;;19.01;100.00
50065;BME280;35951;47.848;-122.338;2022-09-12T08:18:54;101462.87;;;18.99;100.00
50065;BME280;35951;47.848;-122.338;2022-09-12T08:21:24;101461.54;;;19.01;100.00
50065;BME280;35951;47.848;-122.338;2022-09-12T08:23:53;101466.39;;;18.99;100.00
50065;BME280;35951;47.848;-122.338;2022-09-12T08:26:23;101461.12;;;19.01;100.00
50065;BME280;35951;47.848;-122.338;2022-09-12T08:28:50;101467.25;;;19.02;100.00
50065;BME280;35951;47.848;-122.338;2022-09-12T08:31:20;101466.79;;;19.02;100.00
50065;BME280;35951;47.848;-122.338;2022-09-12T08:33:48;101461.98;;;19.02;100.00
50065;BME280;35951;47.848;-122.338;2022-09-12T08:36:25;101458.02;;;19.03;100.00
50065;BME280;35951;47.848;-122.338;2022-09-12T08:38:53;101464.14;;;19.04;100.00
50065;BME280;35951;47.848;-122.338;2022-09-12T08:44:37;101472.05;;;19.04;100.00
50065;BME280;35951;47.848;-122.338;2022-09-12T08:47:37;101477.34;;;19.01;100.00
50065;BME280;35951;47.848;-122.338;2022-09-12T08:52:56;101476.47;;;19.00;100.00
50065;BME280;35951;47.848;-122.338;2022-09-12T08:55:45;101473.39;;;19.01;100.00
50065;BME280;35951;47.848;-122.338;2022-09-12T08:58:17;101461.12;;;19.01;100.00
50065;BME280;35951;47.848;-122.338;2022-09-12T09:10:11;101464.23;;;18.97;100.00
50065;BME280;35951;47.848;-122.338;2022-09-12T09:18:32;101445.37;;;18.95;100.00
50065;BME280;35951;47.848;-122.338;2022-09-12T09:21:18;101448.06;;;18.92;100.00
50065;BME280;35951;47.848;-122.338;2022-09-12T09:23:56;101441.48;;;18.90;100.00
50065;BME280;35951;47.848;-122.338;2022-09-12T09:26:35;101438.86;;;18.90;100.00
50065;BME280;35951;47.848;-122.338;2022-09-12T09:29:17;101441.05;;;18.89;100.00
50065;BME280;35951;47.848;-122.338;2022-09-12T09:31:53;101438.41;;;18.89;100.00
50065;BME280;35951;47.848;-122.338;2022-09-12T09:34:25;101445.45;;;18.89;100.00
50065;BME280;35951;47.848;-122.338;2022-09-12T09:45:45;101456.28;;;18.55;100.00
50065;BME280;35951;47.848;-122.338;2022-09-12T09:48:16;101458.06;;;18.51;100.00
50065;BME280;35951;47.848;-122.338;2022-09-12T09:50:51;101465.12;;;18.48;100.00
50065;BME280;35951;47.848;-122.338;2022-09-12T09:54:08;101469.59;;;18.39;100.00
50065;BME280;35951;47.848;-122.338;2022-09-12T09:56:26;101457.37;;;18.34;100.00
50065;BME280;35951;47.848;-122.338;2022-09-12T09:58:56;101470.14;;;18.27;100.00
50065;BME280;35951;47.848;-122.338;2022-09-12T10:01:59;101469.30;;;18.21;100.00
50065;BME280;35951;47.848;-122.338;2022-09-12T10:04:19;101468.90;;;18.17;100.00
50065;BME280;35951;47.848;-122.338;2022-09-12T10:06:45;101468.48;;;18.12;100.00
50065;BME280;35951;47.848;-122.338;2022-09-12T10:09:27;101469.39;;;18.06;100.00
50065;BME280;35951;47.848;-122.338;2022-09-12T10:11:59;101472.48;;;18.04;100.00
50065;BME280;35951;47.848;-122.338;2022-09-12T10:14:37;101478.20;;;18.02;100.00
50065;BME280;35951;47.848;-122.338;2022-09-12T10:17:23;101483.46;;;18.00;100.00
50065;BME280;35951;47.848;-122.338;2022-09-12T10:20:34;101494.02;;;17.97;100.00
50065;BME280;35951;47.848;-122.338;2022-09-12T10:25:47;101476.09;;;17.92;100.00
50065;BME280;35951;47.848;-122.338;2022-09-12T10:28:46;101474.78;;;17.89;100.00
50065;BME280;35951;47.848;-122.338;2022-09-12T10:30:58;101478.28;;;17.88;100.00
50065;BME280;35951;47.848;-122.338;2022-09-12T10:33:28;101475.23;;;17.87;100.00
50065;BME280;35951;47.848;-122.338;2022-09-12T10:35:57;101485.30;;;17.88;100.00
50065;BME280;35951;47.848;-122.338;2022-09-12T10:38:27;101494.05;;;17.88;100.00
50065;BME280;35951;47.848;-122.338;2022-09-12T10:41:05;101488.38;;;17.87;100.00
50065;BME280;35951;47.848;-122.338;2022-09-12T10:43:39;101480.50;;;17.86;100.00
50065;BME280;35951;47.848;-122.338;2022-09-12T10:48:50;101492.78;;;17.85;100.00
50065;BME280;35951;47.848;-122.338;2022-09-12T10:53:59;101487.93;;;17.88;100.00
50065;BME280;35951;47.848;-122.338;2022-09-12T11:02:33;101487.94;;;17.84;100.00
50065;BME280;35951;47.848;-122.338;2022-09-12T11:08:16;101477.42;;;17.84;100.00
50065;BME280;35951;47.848;-122.338;2022-09-12T11:10:23;101472.17;;;17.83;100.00
50065;BME280;35951;47.848;-122.338;2022-09-12T11:16:25;101471.72;;;17.83;100.00
50065;BME280;35951;47.848;-122.338;2022-09-12T11:19:08;101483.55;;;17.82;100.00
50065;BME280;35951;47.848;-122.338;2022-09-12T11:22:04;101486.19;;;17.80;100.00
50065;BME280;35951;47.848;-122.338;2022-09-12T11:24:51;101480.06;;;17.80;100.00
50065;BME280;35951;47.848;-122.338;2022-09-12T11:30:07;101491.04;;;17.75;100.00
50065;BME280;35951;47.848;-122.338;2022-09-12T11:35:35;101479.67;;;17.73;100.00
50065;BME280;35951;47.848;-122.338;2022-09-12T11:38:32;101476.17;;;17.74;100.00
50065;BME280;35951;47.848;-122.338;2022-09-12T11:44:00;101468.29;;;17.74;100.00
50065;BME280;35951;47.848;-122.338;2022-09-12T11:46:44;101464.76;;;17.75;100.00
50065;BME280;35951;47.848;-122.338;2022-09-12T11:49:28;101469.15;;;17.76;100.00
50065;BME280;35951;47.848;-122.338;2022-09-12T11:52:15;101481.39;;;17.77;100.00
50065;BME280;35951;47.848;-122.338;2022-09-12T11:57:53;101479.62;;;17.79;100.00
50065;BME280;35951;47.848;-122.338;2022-09-12T12:00:29;101480.52;;;17.79;100.00
50065;BME280;35951;47.848;-122.338;2022-09-12T12:03:30;101477.44;;;17.80;100.00
50065;BME280;35951;47.848;-122.338;2022-09-12T12:06:06;101468.23;;;17.80;100.00
50065;BME280;35951;47.848;-122.338;2022-09-12T12:08:45;101472.19;;;17.77;100.00
50065;BME280;35951;47.848;-122.338;2022-09-12T12:11:37;101475.71;;;17.77;100.00
50065;BME280;35951;47.848;-122.338;2022-09-12T12:14:06;101463.44;;;17.78;100.00
50065;BME280;35951;47.848;-122.338;2022-09-12T12:16:42;101467.79;;;17.79;100.00
50065;BME280;35951;47.848;-122.338;2022-09-12T12:19:23;101465.20;;;17.77;100.00
50065;BME280;35951;47.848;-122.338;2022-09-12T12:22:05;101450.30;;;17.75;100.00
50065;BME280;35951;47.848;-122.338;2022-09-12T12:24:51;101442.88;;;17.74;100.00
50065;BME280;35951;47.848;-122.338;2022-09-12T12:27:47;101446.37;;;17.73;100.00
50065;BME280;35951;47.848;-122.338;2022-09-12T12:36:05;101423.62;;;17.72;100.00
50065;BME280;35951;47.848;-122.338;2022-09-12T12:38:36;101425.81;;;17.68;100.00
50065;BME280;35951;47.848;-122.338;2022-09-12T12:43:51;101419.69;;;17.69;100.00
50065;BME280;35951;47.848;-122.338;2022-09-12T12:46:20;101433.23;;;17.72;100.00
50065;BME280;35951;47.848;-122.338;2022-09-12T12:48:53;101438.94;;;17.73;100.00
50065;BME280;35951;47.848;-122.338;2022-09-12T12:51:55;101442.88;;;17.73;100.00
50065;BME280;35951;47.848;-122.338;2022-09-12T12:54:32;101438.95;;;17.68;100.00
50065;BME280;35951;47.848;-122.338;2022-09-12T12:57:32;101443.80;;;17.62;100.00
50065;BME280;35951;47.848;-122.338;2022-09-12T13:02:40;101439.91;;;17.56;100.00
50065;BME280;35951;47.848;-122.338;2022-09-12T13:05:16;101452.19;;;17.51;100.00
50065;BME280;35951;47.848;-122.338;2022-09-12T13:07:46;101447.84;;;17.47;100.00
50065;BME280;35951;47.848;-122.338;2022-09-12T13:10:26;101455.28;;;17.46;100.00
50065;BME280;35951;47.848;-122.338;2022-09-12T13:12:56;101450.47;;;17.47;100.00
50065;BME280;35951;47.848;-122.338;2022-09-12T13:18:17;101447.84;;;17.49;100.00
50065;BME280;35951;47.848;-122.338;2022-09-12T13:21:17;101439.06;;;17.51;100.00
50065;BME280;35951;47.848;-122.338;2022-09-12T13:24:04;101432.08;;;17.49;100.00
50065;BME280;35951;47.848;-122.338;2022-09-12T13:26:40;101434.30;;;17.44;100.00
50065;BME280;35951;47.848;-122.338;2022-09-12T13:29:17;101432.53;;;17.45;100.00
50065;BME280;35951;47.848;-122.338;2022-09-12T13:31:50;101433.40;;;17.45;100.00
50065;BME280;35951;47.848;-122.338;2022-09-12T13:34:25;101426.42;;;17.44;100.00
50065;BME280;35951;47.848;-122.338;2022-09-12T13:37:05;101423.80;;;17.44;100.00
50065;BME280;35951;47.848;-122.338;2022-09-12T13:39:44;101429.05;;;17.41;100.00
50065;BME280;35951;47.848;-122.338;2022-09-12T13:42:40;101434.31;;;17.38;100.00
50065;BME280;35951;47.848;-122.338;2022-09-12T13:45:18;101431.72;;;17.34;100.00
50065;BME280;35951;47.848;-122.338;2022-09-12T13:47:52;101431.73;;;17.32;100.00
50065;BME280;35951;47.848;-122.338;2022-09-12T13:50:29;101425.58;;;17.32;100.00
50065;BME280;35951;47.848;-122.338;2022-09-12T13:53:03;101423.41;;;17.28;100.00
50065;BME280;35951;47.848;-122.338;2022-09-12T13:55:37;101429.56;;;17.25;100.00
50065;BME280;35951;47.848;-122.338;2022-09-12T14:00:43;101444.00;;;17.24;100.00
50065;BME280;35951;47.848;-122.338;2022-09-12T14:03:28;101436.13;;;17.22;100.00
50065;BME280;35951;47.848;-122.338;2022-09-12T14:06:15;101436.16;;;17.21;100.00
50065;BME280;35951;47.848;-122.338;2022-09-12T14:08:45;101440.97;;;17.20;100.00
50065;BME280;35951;47.848;-122.338;2022-09-12T14:11:26;101444.04;;;17.19;100.00
50065;BME280;35951;47.848;-122.338;2022-09-12T14:13:55;101444.45;;;17.19;100.00
50065;BME280;35951;47.848;-122.338;2022-09-12T14:16:23;101436.16;;;17.19;100.00
50065;BME280;35951;47.848;-122.338;2022-09-12T14:18:53;101438.34;;;17.15;100.00
50065;BME280;35951;47.848;-122.338;2022-09-12T14:24:01;101431.81;;;17.14;100.00
50065;BME280;35951;47.848;-122.338;2022-09-12T14:26:36;101442.31;;;17.12;100.00
50065;BME280;35951;47.848;-122.338;2022-09-12T14:29:06;101435.30;;;17.10;100.00
50065;BME280;35951;47.848;-122.338;2022-09-12T14:31:37;101439.24;;;17.08;100.00
50065;BME280;35951;47.848;-122.338;2022-09-12T14:36:51;101439.28;;;17.06;100.00
50065;BME280;35951;47.848;-122.338;2022-09-12T14:39:28;101437.06;;;17.07;100.00
50065;BME280;35951;47.848;-122.338;2022-09-12T14:42:05;101434.00;;;17.08;100.00
50065;BME280;35951;47.848;-122.338;2022-09-12T14:44:42;101430.50;;;17.09;100.00
50065;BME280;35951;47.848;-122.338;2022-09-12T14:47:17;101430.95;;;17.08;100.00
50065;BME280;35951;47.848;-122.338;2022-09-12T14:49:48;101431.41;;;17.06;100.00
50065;BME280;35951;47.848;-122.338;2022-09-12T14:54:57;101433.13;;;17.09;100.00
50065;BME280;35951;47.848;-122.338;2022-09-12T14:57:37;101437.93;;;17.14;100.00